Agua Clara, Brazil
Current Conditions -  °F | °C
As of 10:00 AM on Friday 31 Oct 2014 (Local Time) from SBCG Reporting Station
Scattered Clouds Scattered Clouds  
Wind Chill: 79°   Ceiling: Unl
Heat Index: 81°   Visibility: 6mi
Dew Point: 68°   Wind: 14mph
Humidity: 69%   Direction: 20°NNE
Pressure: 29.94"   Gusts: NA
Location:  20.45°S, 52.88°W
Report Text: SBCG 311300Z 02012KT 9999 SCT020 SCT100 26/20 Q1014
Loading
Personal Weather Stations






























Interactive Weather Map
Tropical Storm Tracking
New forecast layout! Learn more

10-Day Weather Forecast

Advertisements
Track Severe Weather on mobile